Forside
METAR-TAF:

METAR-TAF

Lufthavne :

Whiteside County Airport (Jos. H. Bittorf Field)

Sterling / Rock Falls, Illinois, USA

Breddekreds: 41-45N, længdekreds: 089-40W, højde: 197 m

Aktuelle vejr

Denne rapport blev lavet for 38 minutter siden, kl. 17:56 UTC
Vind 8 kt fra vest
Temperatur 10°C
Fugtighed 57%
Tryk 1015 hPa
Sigt: 16.1 km
skyfri

METAR: KSQI 231756Z 26008KT 10SM CLR 10/02 A2996 RMK AO2 SLP014 T01000017 10106 20000 58004

Tid: 12:34 (18:34 UTC)


TAF: fraværende

Vejrobservationer og prognoser fra mere end 4000 lufthavne (METAR og TAF).

De gule og røde prikker repræsenterer de meteorologiske stationer.

Flyt musen over at se navnet på stationen.

Så klik over at se vejr observationer og prognoser.

At skifte det kort: Klik på de grønne knapper med et sort kors for at zoome ind; på den grønne knap med en bindestreg for at zoome ud; eller på de grønne pile for tilstødende kort.


METAR-TAF: